Billings, MT

8:09 PM MST on November 28, 2014 (GMT -0700)
Downtown Billings | Change Station
CLOSE
Current Station
Personal Weather Station
Location: Billings, MT
Elevation: 3127 ft
Nearby Weather Stations
Active Advisory: Winter Weather Advisory Active Notice: Record Report

Elev 3127 ft 45.78 °N, 108.50 °W | Updated 54 minutes ago

Clear
Clear
52.9 °F
Feels Like 52.9 °F
N
4.0
Wind Variable Wind from WSW
Gusts 6.3 mph

Today
High -- | Low -- °F
--% Chance of Precip.
Yesterday
High -- | Low -- °F
Precip. -- in
7:31 AM 4:32 PM
Waxing Crescent, 47% visible
Pressure 29.39 in
Visibility 10.0 miles
Clouds Few 12000 ft
Dew Point 25 °F
Humidity 33%
Rainfall -999.00 in
Snow Depth Not available.
UV 0 out of 12
Pollen .10 out of 12
Air Quality Not available.
Flu Activity Not available.
METAR KBIL 290253Z 25010KT 10SM FEW120 10/M07 A2940 RMK AO2 SLP950 T01001067 56029

More Conditions Fewer Conditions

Pressure 29.39 in
Visibility 10.0 miles
Clouds Few 12000 ft
Dew Point 25 °F
Humidity 33%
Rainfall -999.00 in
Snow Depth Not available.
UV 0 out of 12
Pollen .10 out of 12
Air Quality Not available.
Flu Activity Not available.
METAR KBIL 290253Z 25010KT 10SM FEW120 10/M07 A2940 RMK AO2 SLP950 T01001067 56029

More Conditions Fewer Conditions

10-Day Weather Forecast

Almanac

Astronomy

Nov. 28, 2014 Rise Set
Actual Time
Civil Twilight
Nautical Twilight
Astronomical Twilight
Moon
Length of Visible Light
Length of Day
Tomorrow will be .
, % of the Moon is Illuminated

Today's Extremes

State Highs State Lows

Community

WunderPhotos

Upload Photos

1,774,381 photos uploaded!

WunderBlogs® & News

Nearby

Air Quality

  Air Quality AQ Index Pollutant
Not available.

Snow Depth

Station Depth Elevation

Earthquake Activity

City Distance Mag. Time & Date
Minimum magnitude displayed is 2.5.

Coastal Water Temperatures

Place Temperature

Nearby Weather Stations